| time (UTC) | temp C | wind direction | speed KPH | gust KPH | rain 1hr cm | rain 24hr cm | rain mn cm | humidity % | barometer mb |
| 20260507091847 | 11 | 337 | 8.0 | 9.7 | 0.00 | 0.00 | 1.27 | 82 | 998.8 |
| 20260507091548 | 11 | 225 | 9.7 | 9.7 | 0.00 | 0.00 | 1.27 | 81 | 998.8 |
| 20260507091248 | 11 | 247 | 3.2 | 3.2 | 0.00 | 0.00 | 1.27 | 82 | 998.8 |
| 20260507090948 | 11 | 270 | 4.8 | 4.8 | 0.00 | 0.00 | 1.27 | 81 | 998.8 |
| 20260507090647 | 11 | 270 | 11.3 | 11.3 | 0.00 | 0.00 | 1.27 | 82 | 998.8 |
| 20260507090347 | 11 | 270 | 4.8 | 4.8 | 0.00 | 0.00 | 1.27 | 81 | 998.8 |
| 20260507090048 | 11 | 270 | 4.8 | 4.8 | 0.00 | 0.00 | 1.27 | 81 | 998.6 |
| 20260507085747 | 11 | 270 | 1.6 | 3.2 | 0.00 | 0.00 | 1.27 | 82 | 998.6 |
| 20260507085450 | 11 | 337 | 6.4 | 6.4 | 0.00 | 0.00 | 1.27 | 82 | 998.6 |
| 20260507085147 | 11 | 337 | 4.8 | 4.8 | 0.00 | 0.00 | 1.27 | 82 | 998.3 |
| 20260507084847 | 11 | 225 | 6.4 | 6.4 | 0.00 | 0.00 | 1.27 | 82 | 998.3 |
| 20260507084548 | 11 | 247 | 1.6 | 1.6 | 0.00 | 0.00 | 1.27 | 82 | 998.3 |
| 20260507084248 | 11 | 337 | 3.2 | 3.2 | 0.00 | 0.00 | 1.27 | 83 | 998.3 |
| 20260507083948 | 11 | 225 | 1.6 | 1.6 | 0.00 | 0.00 | 1.27 | 82 | 998.3 |
| 20260507083650 | 11 | 337 | 1.6 | 3.2 | 0.00 | 0.00 | 1.27 | 82 | 998.3 |
| 20260507083348 | 11 | 247 | 4.8 | 4.8 | 0.00 | 0.00 | 1.27 | 82 | 998.3 |
| 20260507083048 | 11 | 270 | 6.4 | 6.4 | 0.00 | 0.00 | 1.27 | 82 | 998.3 |
| 20260507082748 | 11 | 270 | 6.4 | 6.4 | 0.00 | 0.00 | 1.27 | 82 | 998.3 |
| 20260507082447 | 11 | 247 | 3.2 | 3.2 | 0.00 | 0.00 | 1.27 | 83 | 998.3 |
| 20260507082148 | 11 | 270 | 4.8 | 4.8 | 0.00 | 0.00 | 1.27 | 83 | 998.1 |
| 20260507081850 | 11 | 270 | 3.2 | 3.2 | 0.00 | 0.00 | 1.27 | 83 | 998.1 |
| 20260507081547 | 11 | 270 | 6.4 | 6.4 | 0.00 | 0.00 | 1.27 | 83 | 998.1 |
| 20260507081248 | 11 | 337 | 6.4 | 6.4 | 0.00 | 0.00 | 1.27 | 83 | 998.1 |
| 20260507080950 | 11 | 270 | 4.8 | 4.8 | 0.00 | 0.00 | 1.27 | 83 | 997.8 |
| 20260507080648 | 11 | 270 | 4.8 | 4.8 | 0.00 | 0.00 | 1.27 | 83 | 997.8 |
| 20260507080348 | 11 | 270 | 3.2 | 3.2 | 0.00 | 0.00 | 1.27 | 83 | 997.8 |
| 20260507080050 | 11 | 247 | 4.8 | 4.8 | 0.00 | 0.00 | 1.27 | 83 | 997.8 |
| 20260507075747 | 11 | 270 | 3.2 | 3.2 | 0.00 | 0.00 | 1.27 | 83 | 997.8 |
| 20260507075447 | 10 | 270 | 8.0 | 8.0 | 0.00 | 0.00 | 1.27 | 83 | 997.8 |
| 20260507075146 | 10 | 292 | 3.2 | 3.2 | 0.00 | 0.00 | 1.27 | 83 | 997.8 |
| 20260507074848 | 11 | 270 | 6.4 | 6.4 | 0.00 | 0.00 | 1.27 | 84 | 997.8 |
| 20260507074550 | 10 | 315 | 3.2 | 3.2 | 0.00 | 0.00 | 1.27 | 83 | 997.6 |
| 20260507074247 | 10 | 270 | 3.2 | 3.2 | 0.00 | 0.00 | 1.27 | 84 | 997.8 |
| 20260507073948 | 10 | 315 | 1.6 | 1.6 | 0.00 | 0.00 | 1.27 | 84 | 997.6 |
| 20260507073648 | 10 | 247 | 4.8 | 6.4 | 0.00 | 0.00 | 1.27 | 84 | 997.8 |
| 20260507073347 | 10 | 270 | 0.0 | 0.0 | 0.00 | 0.00 | 1.27 | 84 | 997.6 |
| 20260507073048 | 10 | 270 | 3.2 | 3.2 | 0.00 | 0.00 | 1.27 | 84 | 997.6 |
| 20260507072750 | 10 | 270 | 1.6 | 1.6 | 0.00 | 0.00 | 1.27 | 84 | 997.6 |
| 20260507072448 | 10 | 270 | 3.2 | 3.2 | 0.00 | 0.00 | 1.27 | 84 | 997.6 |
| 20260507072148 | 10 | 247 | 1.6 | 1.6 | 0.00 | 0.00 | 1.27 | 84 | 997.3 |
| 20260507071848 | 10 | 337 | 1.6 | 3.2 | 0.00 | 0.00 | 1.27 | 84 | 997.3 |
| 20260507071547 | 10 | 270 | 6.4 | 6.4 | 0.00 | 0.00 | 1.22 | 84 | 997.3 |
| 20260507071247 | 10 | 315 | 3.2 | 3.2 | 0.00 | 0.00 | 1.22 | 85 | 997.3 |
| 20260507070648 | 10 | 337 | 1.6 | 3.2 | 0.00 | 0.00 | 1.22 | 85 | 997.3 |
| 20260507070348 | 10 | 270 | 3.2 | 3.2 | 0.00 | 0.00 | 1.22 | 85 | 997.3 |
| 20260507070047 | 10 | 270 | 1.6 | 1.6 | 0.00 | 0.00 | 1.22 | 85 | 997.3 |
| 20260507065747 | 10 | 337 | 3.2 | 3.2 | 0.00 | 0.00 | 1.22 | 85 | 997.3 |
| 20260507065447 | 10 | 337 | 0.0 | 0.0 | 0.00 | 0.00 | 1.22 | 85 | 997.1 |
| 20260507065148 | 10 | 270 | 1.6 | 3.2 | 0.00 | 0.00 | 1.22 | 85 | 997.1 |
| 20260507064848 | 10 | 270 | 1.6 | 3.2 | 0.00 | 0.00 | 1.22 | 84 | 997.1 |
| 20260507064547 | 10 | 270 | 1.6 | 1.6 | 0.00 | 0.00 | 1.22 | 85 | 997.3 |
| 20260507064248 | 10 | 247 | 1.6 | 1.6 | 0.00 | 0.00 | 1.22 | 85 | 997.1 |
| 20260507063947 | 10 | 270 | 1.6 | 3.2 | 0.00 | 0.00 | 1.22 | 84 | 996.8 |
| 20260507063647 | 10 | 315 | 3.2 | 3.2 | 0.00 | 0.00 | 1.22 | 84 | 996.8 |
| 20260507063350 | 10 | 270 | 4.8 | 4.8 | 0.00 | 0.00 | 1.22 | 85 | 996.8 |
| 20260507063048 | 10 | 315 | 1.6 | 3.2 | 0.00 | 0.00 | 1.22 | 84 | 996.8 |
| 20260507062747 | 10 | 315 | 3.2 | 3.2 | 0.00 | 0.00 | 1.22 | 84 | 996.8 |
| 20260507062447 | 10 | 225 | 1.6 | 1.6 | 0.00 | 0.00 | 1.22 | 85 | 996.8 |
| 20260507062148 | 10 | 292 | 1.6 | 3.2 | 0.00 | 0.00 | 1.22 | 85 | 996.8 |
| 20260507061848 | 10 | 337 | 4.8 | 4.8 | 0.00 | 0.00 | 1.22 | 85 | 996.8 |
| 20260507061248 | 10 | 337 | 0.0 | 0.0 | 0.00 | 0.00 | 1.22 | 85 | 996.8 |
| 20260507060948 | 10 | 270 | 0.0 | 0.0 | 0.00 | 0.00 | 1.22 | 85 | 996.8 |
| 20260507060648 | 10 | 292 | 1.6 | 1.6 | 0.00 | 0.00 | 1.22 | 85 | 996.6 |
| 20260507060348 | 10 | 270 | 1.6 | 1.6 | 0.00 | 0.00 | 1.22 | 85 | 996.6 |
| 20260507060048 | 10 | 270 | 3.2 | 3.2 | 0.00 | 0.00 | 1.22 | 85 | 996.6 |
| 20260507055748 | 10 | 247 | 1.6 | 1.6 | 0.00 | 0.00 | 1.22 | 85 | 996.3 |
| 20260507055447 | 10 | 225 | 3.2 | 3.2 | 0.00 | 0.00 | 1.22 | 85 | 996.3 |
| 20260507055147 | 10 | 270 | 0.0 | 0.0 | 0.00 | 0.00 | 1.22 | 85 | 996.3 |
| 20260507054848 | 10 | 270 | 4.8 | 4.8 | 0.00 | 0.00 | 1.22 | 84 | 996.3 |
| 20260507054547 | 10 | 292 | 4.8 | 4.8 | 0.00 | 0.00 | 1.22 | 85 | 996.3 |
| 20260507053948 | 10 | 292 | 6.4 | 6.4 | 0.00 | 0.00 | 1.14 | 85 | 996.3 |
| 20260507053648 | 10 | 292 | 4.8 | 4.8 | 0.00 | 0.00 | 1.14 | 85 | 996.1 |
| 20260507053348 | 10 | 337 | 0.0 | 0.0 | 0.00 | 0.00 | 1.14 | 85 | 996.3 |
| 20260507053047 | 10 | 315 | 3.2 | 3.2 | 0.00 | 0.00 | 1.14 | 85 | 996.3 |
| 20260507052447 | 10 | 270 | 1.6 | 1.6 | 0.00 | 0.00 | 1.14 | 86 | 995.8 |
| 20260507052148 | 10 | 270 | 4.8 | 4.8 | 0.00 | 0.00 | 1.14 | 86 | 996.1 |
| 20260507051848 | 10 | 270 | 6.4 | 6.4 | 0.00 | 0.00 | 1.14 | 86 | 995.8 |
| 20260507051548 | 10 | 270 | 3.2 | 3.2 | 0.00 | 0.00 | 1.14 | 86 | 996.1 |
| 20260507051247 | 10 | 270 | 3.2 | 3.2 | 0.00 | 0.00 | 1.14 | 85 | 995.8 |
| 20260507050647 | 10 | 180 | 1.6 | 1.6 | 0.00 | 0.00 | 1.14 | 86 | 995.8 |
| 20260507050347 | 10 | 270 | 4.8 | 6.4 | 0.00 | 0.00 | 1.14 | 86 | 995.8 |
| 20260507050048 | 10 | 270 | 3.2 | 3.2 | 0.00 | 0.00 | 1.14 | 86 | 995.8 |
| 20260507045748 | 10 | 270 | 3.2 | 3.2 | 0.00 | 0.00 | 1.14 | 86 | 995.8 |
| 20260507045448 | 10 | 270 | 3.2 | 3.2 | 0.00 | 0.00 | 1.14 | 86 | 995.6 |
| 20260507045147 | 10 | 270 | 1.6 | 3.2 | 0.00 | 0.00 | 1.14 | 86 | 995.8 |
| 20260507044848 | 10 | 225 | 3.2 | 3.2 | 0.00 | 0.00 | 1.14 | 86 | 995.8 |
| 20260507044547 | 10 | 315 | 3.2 | 3.2 | 0.00 | 0.00 | 1.14 | 86 | 995.6 |
| 20260507044247 | 10 | 270 | 1.6 | 1.6 | 0.00 | 0.00 | 1.14 | 86 | 995.6 |
| 20260507043948 | 10 | 270 | 4.8 | 4.8 | 0.00 | 0.00 | 1.14 | 86 | 995.3 |
| 20260507043648 | 10 | 270 | 3.2 | 3.2 | 0.00 | 0.00 | 1.14 | 86 | 995.3 |
| 20260507043350 | 10 | 270 | 4.8 | 4.8 | 0.00 | 0.00 | 1.14 | 87 | 995.3 |
| 20260507043047 | 10 | 270 | 8.0 | 8.0 | 0.00 | 0.00 | 1.14 | 86 | 995.3 |
| 20260507042747 | 10 | 270 | 4.8 | 4.8 | 0.00 | 0.00 | 1.14 | 87 | 995.3 |
| 20260507042447 | 10 | 270 | 4.8 | 4.8 | 0.00 | 0.00 | 1.14 | 87 | 995.1 |
| 20260507042148 | 10 | 270 | 6.4 | 6.4 | 0.00 | 0.00 | 1.14 | 86 | 995.1 |
| 20260507041848 | 10 | 292 | 1.6 | 3.2 | 0.00 | 0.00 | 1.12 | 87 | 995.1 |
| 20260507041248 | 10 | 270 | 8.0 | 8.0 | 0.00 | 0.00 | 1.12 | 87 | 995.1 |
| 20260507040948 | 10 | 337 | 9.7 | 9.7 | 0.00 | 0.00 | 1.12 | 87 | 995.1 |
| 20260507040647 | 10 | 247 | 4.8 | 4.8 | 0.00 | 0.00 | 1.07 | 87 | 995.1 |
| 20260507040348 | 10 | 225 | 1.6 | 1.6 | 0.00 | 0.00 | 1.07 | 87 | 995.1 |
| 20260507040047 | 10 | 270 | 1.6 | 1.6 | 0.00 | 0.00 | 1.07 | 87 | 994.8 |
| 20260507035747 | 10 | 292 | 1.6 | 1.6 | 0.00 | 0.00 | 1.07 | 87 | 994.8 |
| 20260507035447 | 10 | 270 | 0.0 | 0.0 | 0.00 | 0.00 | 0.99 | 87 | 994.8 |
| 20260507035148 | 10 | 270 | 3.2 | 3.2 | 0.00 | 0.00 | 0.99 | 87 | 994.8 |
| 20260507034848 | 10 | 225 | 3.2 | 3.2 | 0.00 | 0.00 | 0.97 | 87 | 994.8 |
| 20260507034547 | 10 | 247 | 4.8 | 4.8 | 0.00 | 0.00 | 0.97 | 87 | 994.8 |
| 20260507034250 | 10 | 180 | 3.2 | 3.2 | 0.00 | 0.00 | 0.97 | 87 | 994.8 |
| 20260507033947 | 10 | 225 | 4.8 | 4.8 | 0.00 | 0.00 | 0.97 | 87 | 994.8 |
| 20260507033647 | 10 | 225 | 8.0 | 8.0 | 0.00 | 0.00 | 0.97 | 87 | 994.8 |
| 20260507033348 | 10 | 270 | 4.8 | 4.8 | 0.00 | 0.00 | 0.97 | 87 | 994.8 |
| 20260507033047 | 10 | 202 | 3.2 | 3.2 | 0.00 | 0.00 | 0.97 | 87 | 994.8 |
| 20260507032448 | 10 | 292 | 0.0 | 0.0 | 0.00 | 0.00 | 0.91 | 86 | 994.8 |
| 20260507032147 | 10 | 225 | 3.2 | 3.2 | 0.00 | 0.00 | 0.91 | 86 | 994.8 |
| 20260507031848 | 10 | 337 | 3.2 | 3.2 | 0.00 | 0.00 | 0.86 | 86 | 994.8 |
| 20260507031548 | 10 | 202 | 3.2 | 3.2 | 0.00 | 0.00 | 0.86 | 86 | 994.8 |
| 20260507031247 | 10 | 225 | 1.6 | 1.6 | 0.00 | 0.00 | 0.81 | 86 | 994.6 |
| 20260507030646 | 10 | 180 | 3.2 | 3.2 | 0.00 | 0.00 | 0.81 | 86 | 994.6 |
| 20260507030348 | 10 | 270 | 0.0 | 0.0 | 0.00 | 0.00 | 0.81 | 86 | 994.6 |
| 20260507030047 | 10 | 180 | 3.2 | 3.2 | 0.00 | 0.00 | 0.81 | 86 | 994.6 |
| 20260507025747 | 10 | 225 | 3.2 | 3.2 | 0.00 | 0.00 | 0.81 | 86 | 994.8 |
| 20260507025448 | 10 | 180 | 1.6 | 1.6 | 0.00 | 0.00 | 0.81 | 86 | 994.8 |
| 20260507025148 | 10 | 337 | 0.0 | 0.0 | 0.00 | 0.00 | 0.81 | 86 | 994.6 |
| 20260507024847 | 10 | 337 | 1.6 | 3.2 | 0.00 | 0.00 | 0.81 | 86 | 994.6 |
| 20260507024548 | 10 | 202 | 8.0 | 8.0 | 0.00 | 0.00 | 0.81 | 86 | 994.8 |
| 20260507024248 | 10 | 337 | 1.6 | 1.6 | 0.00 | 0.00 | 0.81 | 86 | 994.6 |
| 20260507023947 | 10 | 247 | 3.2 | 3.2 | 0.00 | 0.00 | 0.81 | 86 | 994.8 |
| 20260507023648 | 10 | 157 | 1.6 | 3.2 | 0.00 | 0.00 | 0.74 | 86 | 994.6 |
| 20260507023047 | 10 | 180 | 1.6 | 1.6 | 0.00 | 0.00 | 0.74 | 86 | 994.6 |
| 20260507022748 | 10 | 157 | 3.2 | 3.2 | 0.00 | 0.00 | 0.74 | 86 | 994.8 |
| 20260507022448 | 10 | 202 | 3.2 | 3.2 | 0.00 | 0.00 | 0.74 | 86 | 994.6 |
| 20260507022148 | 10 | 180 | 4.8 | 4.8 | 0.00 | 0.00 | 0.74 | 86 | 994.8 |
| 20260507021848 | 10 | 225 | 9.7 | 9.7 | 0.00 | 0.00 | 0.74 | 86 | 994.6 |
| 20260507021550 | 10 | 180 | 12.9 | 12.9 | 0.00 | 0.00 | 0.74 | 86 | 994.6 |
| 20260507021248 | 11 | 180 | 4.8 | 6.4 | 0.00 | 0.00 | 0.74 | 86 | 994.6 |
| 20260507020948 | 11 | 180 | 6.4 | 6.4 | 0.00 | 0.00 | 0.74 | 86 | 994.6 |
| 20260507020648 | 11 | 202 | 9.7 | 9.7 | 0.00 | 0.00 | 0.74 | 86 | 994.6 |
| 20260507020347 | 11 | 180 | 4.8 | 4.8 | 0.00 | 0.00 | 0.74 | 86 | 994.6 |
| 20260507020047 | 11 | 337 | 4.8 | 4.8 | 0.00 | 0.00 | 0.74 | 86 | 994.6 |
| 20260507015447 | 11 | 337 | 6.4 | 6.4 | 0.00 | 0.00 | 0.74 | 86 | 994.6 |
| 20260507015147 | 11 | 225 | 6.4 | 6.4 | 0.00 | 0.00 | 0.74 | 86 | 994.4 |
| 20260507014847 | 11 | 202 | 8.0 | 8.0 | 0.00 | 0.00 | 0.74 | 86 | 994.4 |
| 20260507014548 | 11 | 180 | 8.0 | 8.0 | 0.00 | 0.00 | 0.74 | 85 | 994.4 |
| 20260507014247 | 11 | 225 | 8.0 | 8.0 | 0.00 | 0.00 | 0.71 | 85 | 994.4 |
| 20260507013648 | 11 | 337 | 4.8 | 4.8 | 0.00 | 0.00 | 0.71 | 85 | 994.4 |
| 20260507013348 | 11 | 202 | 4.8 | 4.8 | 0.00 | 0.00 | 0.71 | 84 | 994.4 |
| 20260507013048 | 11 | 225 | 1.6 | 3.2 | 0.00 | 0.00 | 0.71 | 84 | 994.6 |
| 20260507012747 | 11 | 337 | 3.2 | 3.2 | 0.00 | 0.00 | 0.71 | 84 | 994.4 |
| 20260507012450 | 11 | 270 | 3.2 | 3.2 | 0.00 | 0.00 | 0.66 | 84 | 994.4 |
| 20260507012148 | 11 | 270 | 0.0 | 0.0 | 0.00 | 0.00 | 0.66 | 84 | 994.4 |
| 20260507011848 | 11 | 270 | 0.0 | 0.0 | 0.00 | 0.00 | 0.66 | 84 | 994.4 |
| 20260507011548 | 11 | 270 | 4.8 | 6.4 | 0.00 | 0.00 | 0.66 | 83 | 994.4 |
| 20260507011248 | 11 | 270 | 4.8 | 4.8 | 0.00 | 0.00 | 0.66 | 83 | 994.4 |
| 20260507010946 | 11 | 315 | 1.6 | 1.6 | 0.00 | 0.00 | 0.66 | 83 | 994.4 |
| 20260507010650 | 11 | 337 | 3.2 | 3.2 | 0.00 | 0.00 | 0.66 | 83 | 994.4 |
| 20260507010347 | 11 | 270 | 0.0 | 0.0 | 0.00 | 0.00 | 0.66 | 83 | 994.4 |
| 20260507010048 | 11 | 270 | 3.2 | 3.2 | 0.00 | 0.00 | 0.66 | 83 | 994.4 |
| 20260507005747 | 11 | 270 | 3.2 | 3.2 | 0.00 | 0.00 | 0.66 | 83 | 994.4 |
| 20260507005447 | 11 | 337 | 1.6 | 1.6 | 0.00 | 0.00 | 0.66 | 84 | 994.4 |
| 20260507005148 | 11 | 247 | 3.2 | 3.2 | 0.00 | 0.00 | 0.61 | 83 | 994.4 |
| 20260507004850 | 11 | 270 | 1.6 | 1.6 | 0.00 | 0.00 | 0.61 | 83 | 994.4 |
| 20260507004548 | 11 | 270 | 1.6 | 1.6 | 0.00 | 0.00 | 0.61 | 83 | 994.4 |
| 20260507004248 | 11 | 247 | 3.2 | 3.2 | 0.00 | 0.00 | 0.61 | 83 | 994.4 |
| 20260507003948 | 11 | 270 | 1.6 | 1.6 | 0.00 | 0.00 | 0.61 | 83 | 994.1 |
| 20260507003647 | 11 | 315 | 0.0 | 0.0 | 0.00 | 0.00 | 0.61 | 83 | 994.4 |
| 20260507003348 | 11 | 0 | 0.0 | 0.0 | 0.00 | 0.00 | 0.61 | 83 | 994.4 |
| 20260507003047 | 11 | 0 | 0.0 | 0.0 | 0.00 | 0.00 | 0.61 | 83 | 994.4 |
| 20260507002747 | 11 | 315 | 0.0 | 0.0 | 0.00 | 0.00 | 0.56 | 83 | 994.4 |
| 20260507002448 | 11 | 270 | 1.6 | 1.6 | 0.00 | 0.00 | 0.56 | 83 | 994.4 |
| 20260507002147 | 11 | 270 | 0.0 | 0.0 | 0.00 | 0.00 | 0.56 | 83 | 994.1 |
| 20260507001848 | 11 | 270 | 0.0 | 0.0 | 0.00 | 0.00 | 0.56 | 83 | 994.4 |
| 20260507001547 | 11 | 270 | 0.0 | 0.0 | 0.00 | 0.00 | 0.48 | 83 | 994.1 |
| 20260507000946 | 11 | 270 | 3.2 | 3.2 | 0.00 | 0.00 | 0.48 | 83 | 994.1 |
| 20260507000647 | 11 | 225 | 0.0 | 0.0 | 0.00 | 0.00 | 0.46 | 83 | 994.4 |
| 20260507000350 | 11 | 225 | 3.2 | 3.2 | 0.00 | 0.00 | 0.41 | 83 | 994.4 |
| 20260507000048 | 11 | 337 | 3.2 | 3.2 | 0.00 | 0.00 | 0.30 | 83 | 994.4 |
| 20260506235448 | 11 | 225 | 0.0 | 0.0 | 0.00 | 0.00 | 0.23 | 83 | 994.4 |
| 20260506235147 | 11 | 225 | 3.2 | 3.2 | 0.00 | 0.00 | 0.23 | 83 | 994.4 |
| 20260506234847 | 11 | 180 | 1.6 | 1.6 | 0.00 | 0.00 | 0.23 | 83 | 994.4 |
| 20260506234547 | 11 | 225 | 3.2 | 3.2 | 0.00 | 0.00 | 0.23 | 83 | 994.4 |
| 20260506234247 | 11 | 337 | 1.6 | 1.6 | 0.00 | 0.00 | 0.23 | 83 | 994.1 |
| 20260506233647 | 11 | 180 | 4.8 | 4.8 | 0.00 | 0.00 | 0.20 | 82 | 994.4 |
| 20260506233347 | 11 | 180 | 4.8 | 4.8 | 0.00 | 0.00 | 0.20 | 82 | 994.4 |
| 20260506233048 | 11 | 337 | 3.2 | 3.2 | 0.00 | 0.00 | 0.20 | 82 | 994.1 |
| 20260506232747 | 11 | 90 | 0.0 | 0.0 | 0.00 | 0.00 | 0.20 | 81 | 994.4 |
| 20260506232448 | 11 | 337 | 0.0 | 0.0 | 0.00 | 0.00 | 0.20 | 81 | 994.4 |
| 20260506232148 | 11 | 90 | 0.0 | 0.0 | 0.00 | 0.00 | 0.20 | 81 | 994.4 |
| 20260506231848 | 11 | 90 | 0.0 | 0.0 | 0.00 | 0.00 | 0.20 | 80 | 994.4 |
| 20260506231547 | 11 | 90 | 0.0 | 0.0 | 0.00 | 0.00 | 0.20 | 80 | 994.4 |
| 20260506231247 | 11 | 90 | 0.0 | 0.0 | 0.00 | 0.00 | 0.20 | 80 | 994.4 |
| 20260506230948 | 11 | 45 | 0.0 | 0.0 | 0.00 | 0.00 | 0.20 | 79 | 994.4 |
| 20260506230647 | 11 | 90 | 0.0 | 0.0 | 0.00 | 0.00 | 0.20 | 79 | 994.4 |
| 20260506230047 | 11 | 337 | 0.0 | 0.0 | 0.00 | 0.00 | 0.15 | 79 | 994.4 |
| 20260506225747 | 11 | 90 | 0.0 | 0.0 | 0.00 | 0.00 | 0.15 | 78 | 994.4 |
| 20260506225447 | 11 | 90 | 0.0 | 0.0 | 0.00 | 0.00 | 0.15 | 79 | 994.4 |
| 20260506225148 | 11 | 45 | 0.0 | 0.0 | 0.00 | 0.00 | 0.10 | 78 | 994.4 |
| 20260506224847 | 11 | 45 | 0.0 | 0.0 | 0.00 | 0.00 | 0.10 | 78 | 994.4 |
| 20260506224550 | 11 | 337 | 0.0 | 0.0 | 0.00 | 0.00 | 0.10 | 78 | 994.4 |
| 20260506224248 | 11 | 135 | 0.0 | 0.0 | 0.00 | 0.00 | 0.05 | 78 | 994.1 |
| 20260506223948 | 11 | 135 | 0.0 | 0.0 | 0.00 | 0.00 | 0.05 | 77 | 994.4 |
| 20260506223647 | 11 | 135 | 0.0 | 0.0 | 0.00 | 0.00 | 0.05 | 77 | 994.1 |
| 20260506223347 | 11 | 337 | 0.0 | 0.0 | 0.00 | 0.00 | 0.05 | 77 | 994.1 |
| 20260506223048 | 11 | 135 | 1.6 | 1.6 | 0.00 | 0.00 | 0.05 | 77 | 994.1 |
| 20260506222448 | 11 | 337 | 0.0 | 0.0 | 0.00 | 0.00 | 0.00 | 77 | 994.1 |
| 20260506222147 | 11 | 135 | 0.0 | 0.0 | 0.00 | 0.00 | 0.00 | 76 | 994.1 |
| 20260506221847 | 12 | 135 | 0.0 | 0.0 | 0.00 | 0.00 | 0.00 | 77 | 993.9 |
| 20260506221548 | 12 | 112 | 0.0 | 0.0 | 0.00 | 0.00 | 0.00 | 76 | 993.9 |
| 20260506221247 | 12 | 112 | 0.0 | 0.0 | 0.00 | 0.00 | 0.00 | 77 | 993.9 |
| 20260506220948 | 12 | 90 | 1.6 | 1.6 | 0.00 | 0.00 | 0.00 | 76 | 993.9 |
| 20260506220648 | 12 | 315 | 0.0 | 0.0 | 0.00 | 0.00 | 0.00 | 76 | 993.9 |
| 20260506220347 | 12 | 315 | 0.0 | 0.0 | 0.00 | 0.00 | 0.00 | 75 | 993.9 |
| 20260506220048 | 12 | 315 | 0.0 | 0.0 | 0.00 | 0.00 | 0.00 | 75 | 993.9 |
| 20260506215747 | 12 | 315 | 0.0 | 0.0 | 0.00 | 0.00 | 0.05 | 75 | 993.9 |
| 20260506215147 | 12 | 315 | 0.0 | 0.0 | 0.00 | 0.00 | 0.05 | 74 | 993.9 |
| 20260506214847 | 12 | 337 | 0.0 | 0.0 | 0.00 | 0.00 | 0.05 | 74 | 993.9 |
| 20260506214547 | 11 | 315 | 0.0 | 0.0 | 0.00 | 0.00 | 0.05 | 74 | 993.9 |
| 20260506214248 | 11 | 315 | 0.0 | 0.0 | 0.00 | 0.00 | 0.05 | 73 | 993.9 |
| 20260506213950 | 12 | 337 | 0.0 | 0.0 | 0.00 | 0.00 | 0.05 | 72 | 993.9 |
| 20260506213650 | 12 | 337 | 0.0 | 0.0 | 0.00 | 0.00 | 0.05 | 72 | 993.9 |
| 20260506213348 | 12 | 270 | 0.0 | 0.0 | 0.00 | 0.00 | 0.05 | 72 | 993.9 |
| 20260506213048 | 12 | 337 | 0.0 | 0.0 | 0.00 | 0.00 | 0.05 | 71 | 993.9 |
| 20260506212748 | 12 | 270 | 1.6 | 1.6 | 0.00 | 0.00 | 0.05 | 72 | 993.9 |
| 20260506212148 | 12 | 247 | 0.0 | 0.0 | 0.00 | 0.00 | 0.05 | 72 | 993.9 |
| 20260506211847 | 12 | 337 | 0.0 | 0.0 | 0.00 | 0.00 | 0.05 | 72 | 993.9 |
| 20260506211548 | 11 | 45 | 0.0 | 0.0 | 0.00 | 0.00 | 0.05 | 72 | 993.6 |
| 20260506211247 | 11 | 337 | 0.0 | 0.0 | 0.00 | 0.00 | 0.05 | 72 | 993.9 |
| 20260506210948 | 11 | 45 | 0.0 | 0.0 | 0.00 | 0.00 | 0.05 | 72 | 993.9 |
| 20260506210348 | 11 | 337 | 0.0 | 0.0 | 0.00 | 0.00 | 0.05 | 71 | 993.6 |
| 20260506210047 | 12 | 315 | 0.0 | 0.0 | 0.00 | 0.00 | 0.05 | 70 | 993.6 |
| 20260506205748 | 12 | 180 | 0.0 | 0.0 | 0.00 | 0.00 | 0.05 | 70 | 993.6 |
| 20260506205447 | 12 | 337 | 0.0 | 0.0 | 0.00 | 0.00 | 0.05 | 70 | 993.6 |
| 20260506205147 | 12 | 225 | 0.0 | 0.0 | 0.00 | 0.00 | 0.05 | 70 | 993.6 |
| 20260506204547 | 12 | 225 | 0.0 | 0.0 | 0.00 | 0.00 | 0.05 | 69 | 993.6 |
| 20260506204248 | 12 | 180 | 0.0 | 0.0 | 0.00 | 0.00 | 0.05 | 69 | 993.6 |
| 20260506203948 | 12 | 225 | 1.6 | 1.6 | 0.00 | 0.00 | 0.05 | 69 | 993.4 |
| 20260506203647 | 12 | 180 | 3.2 | 3.2 | 0.00 | 0.00 | 0.05 | 68 | 993.6 |
| 20260506203348 | 12 | 202 | 0.0 | 0.0 | 0.00 | 0.00 | 0.05 | 67 | 993.4 |
| 20260506203048 | 12 | 202 | 0.0 | 0.0 | 0.00 | 0.00 | 0.05 | 68 | 993.6 |
| 20260506202747 | 12 | 270 | 0.0 | 0.0 | 0.00 | 0.00 | 0.05 | 67 | 993.4 |
| 20260506202448 | 12 | 270 | 1.6 | 1.6 | 0.00 | 0.00 | 0.05 | 67 | 993.4 |
| 20260506202148 | 12 | 315 | 3.2 | 3.2 | 0.00 | 0.00 | 0.05 | 67 | 993.4 |
| 20260506201850 | 12 | 337 | 3.2 | 3.2 | 0.00 | 0.00 | 0.05 | 67 | 993.4 |
| 20260506201550 | 12 | 270 | 4.8 | 4.8 | 0.00 | 0.00 | 0.05 | 67 | 993.4 |
| 20260506201247 | 12 | 270 | 3.2 | 3.2 | 0.00 | 0.00 | 0.05 | 68 | 993.4 |
| 20260506200948 | 12 | 292 | 4.8 | 6.4 | 0.00 | 0.00 | 0.05 | 67 | 993.4 |
| 20260506200647 | 12 | 315 | 3.2 | 3.2 | 0.00 | 0.00 | 0.05 | 68 | 993.6 |
| 20260506200347 | 12 | 315 | 4.8 | 4.8 | 0.00 | 0.00 | 0.05 | 68 | 993.4 |
| 20260506200048 | 12 | 337 | 3.2 | 3.2 | 0.00 | 0.00 | 0.05 | 68 | 993.4 |
| 20260506195750 | 12 | 270 | 3.2 | 3.2 | 0.00 | 0.00 | 0.05 | 68 | 993.4 |
| 20260506195447 | 13 | 337 | 8.0 | 8.0 | 0.00 | 0.00 | 0.05 | 69 | 993.4 |
| 20260506195148 | 13 | 270 | 6.4 | 6.4 | 0.00 | 0.00 | 0.05 | 70 | 993.4 |
| 20260506194848 | 13 | 247 | 6.4 | 6.4 | 0.00 | 0.00 | 0.05 | 70 | 993.4 |
| 20260506194548 | 13 | 270 | 4.8 | 4.8 | 0.00 | 0.00 | 0.05 | 70 | 993.4 |
| 20260506194248 | 13 | 270 | 9.7 | 9.7 | 0.00 | 0.00 | 0.05 | 70 | 993.4 |
| 20260506193947 | 13 | 315 | 4.8 | 4.8 | 0.00 | 0.00 | 0.05 | 70 | 993.4 |
| 20260506193647 | 12 | 315 | 3.2 | 3.2 | 0.00 | 0.00 | 0.05 | 70 | 993.4 |
| 20260506193347 | 12 | 315 | 4.8 | 4.8 | 0.00 | 0.00 | 0.05 | 70 | 993.1 |
| 20260506193048 | 12 | 315 | 4.8 | 4.8 | 0.00 | 0.00 | 0.05 | 70 | 993.4 |
| 20260506192747 | 12 | 315 | 3.2 | 3.2 | 0.00 | 0.00 | 0.05 | 69 | 993.1 |
| 20260506192450 | 12 | 337 | 3.2 | 3.2 | 0.00 | 0.00 | 0.05 | 69 | 993.1 |
| 20260506192148 | 12 | 337 | 3.2 | 3.2 | 0.00 | 0.00 | 0.05 | 69 | 992.9 |
| 20260506191848 | 12 | 337 | 3.2 | 3.2 | 0.00 | 0.00 | 0.05 | 69 | 992.9 |
| 20260506191548 | 12 | 337 | 0.0 | 0.0 | 0.00 | 0.00 | 0.05 | 69 | 992.9 |
| 20260506191247 | 12 | 292 | 1.6 | 1.6 | 0.00 | 0.00 | 0.05 | 69 | 992.9 |
| 20260506190947 | 12 | 315 | 1.6 | 1.6 | 0.00 | 0.00 | 0.05 | 68 | 992.9 |
| 20260506190347 | 12 | 315 | 0.0 | 0.0 | 0.00 | 0.00 | 0.05 | 68 | 992.6 |
| 20260506190048 | 12 | 315 | 0.0 | 0.0 | 0.00 | 0.00 | 0.05 | 69 | 992.6 |
| 20260506185747 | 12 | 292 | 0.0 | 0.0 | 0.00 | 0.00 | 0.05 | 68 | 992.6 |
| 20260506185447 | 12 | 292 | 0.0 | 0.0 | 0.00 | 0.00 | 0.05 | 68 | 992.6 |
| 20260506185147 | 12 | 292 | 0.0 | 0.0 | 0.00 | 0.00 | 0.05 | 68 | 992.4 |
| 20260506184850 | 13 | 292 | 0.0 | 0.0 | 0.00 | 0.00 | 0.05 | 67 | 992.6 |
| 20260506184548 | 13 | 292 | 0.0 | 0.0 | 0.00 | 0.00 | 0.05 | 67 | 992.4 |
| 20260506184247 | 13 | 292 | 0.0 | 0.0 | 0.00 | 0.00 | 0.05 | 67 | 992.4 |
| 20260506183947 | 13 | 292 | 0.0 | 0.0 | 0.00 | 0.00 | 0.05 | 67 | 992.4 |
| 20260506183647 | 13 | 292 | 0.0 | 0.0 | 0.00 | 0.00 | 0.05 | 66 | 992.4 |
| 20260506183050 | 13 | 292 | 0.0 | 0.0 | 0.00 | 0.00 | 0.05 | 65 | 992.4 |
| 20260506182747 | 14 | 270 | 0.0 | 0.0 | 0.00 | 0.00 | 0.05 | 64 | 992.1 |
| 20260506182147 | 15 | 337 | 0.0 | 0.0 | 0.00 | 0.00 | 0.05 | 63 | 992.1 |
| 20260506181847 | 15 | 315 | 1.6 | 1.6 | 0.00 | 0.00 | 0.05 | 63 | 992.1 |
| 20260506181548 | 15 | 315 | 1.6 | 1.6 | 0.00 | 0.00 | 0.05 | 63 | 992.1 |
| 20260506181247 | 15 | 337 | 1.6 | 3.2 | 0.00 | 0.00 | 0.05 | 63 | 992.1 |
| 20260506180948 | 15 | 315 | 1.6 | 1.6 | 0.00 | 0.00 | 0.05 | 63 | 992.1 |
| 20260506180648 | 15 | 0 | 1.6 | 3.2 | 0.00 | 0.00 | 0.05 | 63 | 992.1 |
| 20260506180047 | 15 | 0 | 3.2 | 3.2 | 0.00 | 0.00 | 0.05 | 63 | 992.1 |
| 20260506175748 | 15 | 315 | 1.6 | 1.6 | 0.00 | 0.00 | 0.05 | 63 | 992.1 |
| 20260506175448 | 15 | 337 | 3.2 | 3.2 | 0.00 | 0.00 | 0.05 | 62 | 992.1 |
| 20260506175148 | 15 | 315 | 6.4 | 6.4 | 0.00 | 0.00 | 0.05 | 62 | 991.9 |
| 20260506174848 | 15 | 337 | 1.6 | 1.6 | 0.00 | 0.00 | 0.05 | 62 | 992.1 |
| 20260506174550 | 15 | 270 | 8.0 | 8.0 | 0.00 | 0.00 | 0.05 | 62 | 991.9 |
| 20260506174248 | 16 | 315 | 3.2 | 3.2 | 0.00 | 0.00 | 0.05 | 61 | 992.1 |
| 20260506173946 | 16 | 315 | 3.2 | 3.2 | 0.00 | 0.00 | 0.05 | 61 | 991.9 |
| 20260506173648 | 16 | 270 | 3.2 | 3.2 | 0.00 | 0.00 | 0.05 | 60 | 991.9 |
| 20260506173348 | 16 | 337 | 8.0 | 8.0 | 0.00 | 0.00 | 0.05 | 60 | 991.9 |
| 20260506173050 | 16 | 315 | 4.8 | 4.8 | 0.00 | 0.00 | 0.05 | 61 | 991.9 |
| 20260506172748 | 16 | 270 | 3.2 | 3.2 | 0.00 | 0.00 | 0.05 | 60 | 991.9 |
| 20260506172448 | 17 | 270 | 4.8 | 4.8 | 0.00 | 0.00 | 0.05 | 60 | 991.6 |
| 20260506172147 | 17 | 270 | 1.6 | 1.6 | 0.00 | 0.00 | 0.05 | 60 | 991.6 |
| 20260506171847 | 17 | 337 | 6.4 | 6.4 | 0.00 | 0.00 | 0.05 | 60 | 991.6 |
| 20260506171248 | 16 | 270 | 6.4 | 6.4 | 0.00 | 0.00 | 0.05 | 59 | 991.6 |
| 20260506170948 | 16 | 292 | 8.0 | 8.0 | 0.00 | 0.00 | 0.05 | 58 | 991.6 |
| 20260506170647 | 17 | 315 | 6.4 | 6.4 | 0.00 | 0.00 | 0.05 | 58 | 991.6 |
| 20260506170348 | 17 | 337 | 4.8 | 4.8 | 0.00 | 0.00 | 0.05 | 58 | 991.4 |
| 20260506170048 | 17 | 315 | 6.4 | 6.4 | 0.00 | 0.00 | 0.05 | 58 | 991.6 |
| 20260506165448 | 17 | 315 | 6.4 | 6.4 | 0.00 | 0.00 | 0.05 | 58 | 991.6 |
| 20260506165150 | 17 | 270 | 9.7 | 9.7 | 0.00 | 0.00 | 0.05 | 58 | 991.6 |
| 20260506164847 | 17 | 270 | 4.8 | 4.8 | 0.00 | 0.00 | 0.05 | 57 | 991.4 |
| 20260506164547 | 17 | 292 | 3.2 | 3.2 | 0.00 | 0.00 | 0.05 | 57 | 991.4 |
| 20260506164247 | 17 | 247 | 1.6 | 1.6 | 0.00 | 0.00 | 0.05 | 56 | 991.6 |
| 20260506163950 | 17 | 225 | 3.2 | 3.2 | 0.00 | 0.00 | 0.05 | 56 | 991.4 |
| 20260506163648 | 17 | 337 | 1.6 | 1.6 | 0.00 | 0.00 | 0.05 | 56 | 991.6 |
| 20260506163347 | 17 | 225 | 9.7 | 9.7 | 0.00 | 0.00 | 0.05 | 56 | 991.6 |
| 20260506163047 | 17 | 202 | 8.0 | 8.0 | 0.00 | 0.00 | 0.05 | 55 | 991.6 |
| 20260506162748 | 17 | 225 | 4.8 | 6.4 | 0.00 | 0.00 | 0.05 | 55 | 991.6 |
| 20260506162447 | 17 | 225 | 4.8 | 4.8 | 0.00 | 0.00 | 0.05 | 55 | 991.6 |
| 20260506161848 | 17 | 180 | 8.0 | 8.0 | 0.00 | 0.00 | 0.05 | 55 | 991.9 |
| 20260506161547 | 18 | 202 | 4.8 | 4.8 | 0.00 | 0.00 | 0.05 | 54 | 991.9 |
| 20260506161247 | 18 | 225 | 4.8 | 4.8 | 0.00 | 0.00 | 0.05 | 54 | 991.9 |
| 20260506160948 | 18 | 292 | 4.8 | 4.8 | 0.00 | 0.00 | 0.05 | 53 | 991.9 |
| 20260506160647 | 18 | 225 | 6.4 | 6.4 | 0.00 | 0.00 | 0.05 | 53 | 991.9 |
| 20260506160348 | 18 | 225 | 3.2 | 3.2 | 0.00 | 0.00 | 0.05 | 54 | 991.9 |
| 20260506160047 | 18 | 270 | 4.8 | 4.8 | 0.00 | 0.00 | 0.05 | 53 | 991.9 |
| 20260506155748 | 18 | 270 | 1.6 | 1.6 | 0.00 | 0.00 | 0.05 | 53 | 991.9 |
| 20260506155450 | 18 | 337 | 6.4 | 6.4 | 0.00 | 0.00 | 0.05 | 52 | 991.9 |
| 20260506155148 | 18 | 270 | 8.0 | 8.0 | 0.00 | 0.00 | 0.05 | 52 | 991.9 |
| 20260506154847 | 18 | 292 | 1.6 | 3.2 | 0.00 | 0.00 | 0.05 | 51 | 992.1 |
| 20260506154548 | 18 | 225 | 3.2 | 3.2 | 0.00 | 0.00 | 0.05 | 52 | 992.1 |
| 20260506154248 | 18 | 225 | 3.2 | 3.2 | 0.00 | 0.00 | 0.05 | 52 | 991.9 |
| 20260506153947 | 18 | 270 | 8.0 | 8.0 | 0.00 | 0.00 | 0.05 | 51 | 991.9 |
| 20260506153650 | 18 | 225 | 12.9 | 12.9 | 0.00 | 0.00 | 0.05 | 52 | 991.9 |
| 20260506153348 | 18 | 225 | 6.4 | 6.4 | 0.00 | 0.00 | 0.05 | 51 | 991.9 |
| 20260506153047 | 19 | 270 | 3.2 | 3.2 | 0.00 | 0.00 | 0.05 | 51 | 991.9 |
| 20260506152748 | 19 | 337 | 1.6 | 3.2 | 0.00 | 0.00 | 0.05 | 51 | 991.9 |
| 20260506152448 | 18 | 225 | 4.8 | 4.8 | 0.00 | 0.00 | 0.05 | 51 | 991.9 |
| 20260506152147 | 19 | 225 | 6.4 | 6.4 | 0.00 | 0.00 | 0.05 | 52 | 991.9 |
| 20260506151847 | 20 | 225 | 3.2 | 3.2 | 0.00 | 0.00 | 0.05 | 53 | 991.9 |
| 20260506151547 | 20 | 180 | 4.8 | 4.8 | 0.00 | 0.00 | 0.05 | 52 | 991.9 |
| 20260506151248 | 20 | 292 | 3.2 | 3.2 | 0.00 | 0.00 | 0.05 | 52 | 991.9 |
| 20260506150948 | 20 | 225 | 3.2 | 3.2 | 0.00 | 0.00 | 0.05 | 51 | 991.9 |
| 20260506150647 | 19 | 337 | 4.8 | 4.8 | 0.00 | 0.00 | 0.05 | 51 | 991.9 |
| 20260506150047 | 20 | 225 | 3.2 | 3.2 | 0.00 | 0.00 | 0.05 | 49 | 991.9 |
| 20260506145748 | 20 | 270 | 3.2 | 3.2 | 0.00 | 0.00 | 0.05 | 48 | 991.9 |
| 20260506145447 | 20 | 225 | 6.4 | 6.4 | 0.00 | 0.00 | 0.05 | 51 | 991.9 |
| 20260506145147 | 20 | 337 | 3.2 | 3.2 | 0.00 | 0.00 | 0.05 | 51 | 991.9 |
| 20260506144847 | 20 | 337 | 0.0 | 0.0 | 0.00 | 0.00 | 0.05 | 52 | 991.9 |
| 20260506144550 | 21 | 270 | 4.8 | 4.8 | 0.00 | 0.00 | 0.05 | 52 | 991.9 |
| 20260506144248 | 20 | 202 | 6.4 | 6.4 | 0.00 | 0.00 | 0.05 | 53 | 992.1 |
| 20260506143947 | 20 | 337 | 6.4 | 6.4 | 0.00 | 0.00 | 0.05 | 52 | 992.1 |
| 20260506143647 | 20 | 270 | 6.4 | 6.4 | 0.00 | 0.00 | 0.05 | 53 | 992.1 |
| 20260506143347 | 20 | 247 | 4.8 | 4.8 | 0.00 | 0.00 | 0.05 | 54 | 992.1 |
| 20260506143047 | 20 | 180 | 4.8 | 4.8 | 0.00 | 0.00 | 0.05 | 54 | 992.4 |
| 20260506142450 | 20 | 225 | 3.2 | 3.2 | 0.00 | 0.00 | 0.05 | 53 | 992.1 |
| 20260506142148 | 20 | 270 | 4.8 | 4.8 | 0.00 | 0.00 | 0.05 | 54 | 992.1 |
| 20260506141847 | 20 | 315 | 3.2 | 3.2 | 0.00 | 0.00 | 0.05 | 54 | 992.4 |
| 20260506141547 | 19 | 180 | 4.8 | 4.8 | 0.00 | 0.00 | 0.05 | 54 | 992.4 |
| 20260506141247 | 20 | 225 | 8.0 | 8.0 | 0.00 | 0.00 | 0.05 | 56 | 992.1 |
| 20260506140948 | 20 | 180 | 6.4 | 6.4 | 0.00 | 0.00 | 0.05 | 55 | 992.4 |
| 20260506140647 | 20 | 337 | 4.8 | 6.4 | 0.00 | 0.00 | 0.05 | 55 | 992.1 |
| 20260506140348 | 20 | 270 | 3.2 | 3.2 | 0.00 | 0.00 | 0.05 | 55 | 992.1 |
| 20260506140048 | 20 | 270 | 4.8 | 4.8 | 0.00 | 0.00 | 0.05 | 52 | 992.1 |
| 20260506135748 | 20 | 180 | 3.2 | 3.2 | 0.00 | 0.00 | 0.05 | 54 | 992.1 |
| 20260506135148 | 19 | 202 | 8.0 | 8.0 | 0.00 | 0.00 | 0.05 | 56 | 992.1 |
| 20260506134847 | 19 | 180 | 6.4 | 6.4 | 0.00 | 0.00 | 0.05 | 56 | 992.1 |
| 20260506134548 | 19 | 202 | 3.2 | 3.2 | 0.00 | 0.00 | 0.05 | 56 | 992.1 |
| 20260506134247 | 18 | 180 | 6.4 | 6.4 | 0.00 | 0.00 | 0.05 | 54 | 992.4 |
| 20260506133947 | 19 | 180 | 8.0 | 8.0 | 0.00 | 0.00 | 0.05 | 56 | 992.4 |
| 20260506133650 | 19 | 225 | 6.4 | 6.4 | 0.00 | 0.00 | 0.05 | 56 | 992.4 |
| 20260506133348 | 19 | 180 | 1.6 | 1.6 | 0.00 | 0.00 | 0.05 | 54 | 992.4 |
| 20260506133047 | 19 | 157 | 1.6 | 3.2 | 0.00 | 0.00 | 0.05 | 55 | 992.4 |
| 20260506132748 | 19 | 337 | 6.4 | 6.4 | 0.00 | 0.00 | 0.05 | 56 | 992.4 |
| 20260506132448 | 19 | 225 | 8.0 | 8.0 | 0.00 | 0.00 | 0.05 | 54 | 992.4 |
| 20260506132150 | 19 | 225 | 12.9 | 12.9 | 0.00 | 0.00 | 0.05 | 55 | 992.4 |
| 20260506131848 | 19 | 135 | 3.2 | 3.2 | 0.00 | 0.00 | 0.05 | 55 | 992.4 |
| 20260506131547 | 18 | 225 | 4.8 | 4.8 | 0.00 | 0.00 | 0.05 | 55 | 992.4 |
| 20260506131247 | 19 | 135 | 4.8 | 4.8 | 0.00 | 0.00 | 0.05 | 54 | 992.4 |
| 20260506130948 | 19 | 225 | 6.4 | 6.4 | 0.00 | 0.00 | 0.05 | 54 | 992.4 |
| 20260506130647 | 20 | 180 | 8.0 | 8.0 | 0.00 | 0.00 | 0.05 | 56 | 992.4 |
| 20260506130347 | 20 | 180 | 6.4 | 6.4 | 0.00 | 0.00 | 0.05 | 55 | 992.4 |
| 20260506130047 | 20 | 202 | 8.0 | 8.0 | 0.00 | 0.00 | 0.05 | 55 | 992.4 |
| 20260506125747 | 20 | 135 | 3.2 | 3.2 | 0.00 | 0.00 | 0.05 | 56 | 992.4 |
| 20260506125447 | 20 | 180 | 4.8 | 4.8 | 0.00 | 0.00 | 0.05 | 56 | 992.4 |
| 20260506125147 | 20 | 337 | 3.2 | 3.2 | 0.00 | 0.00 | 0.05 | 57 | 992.4 |
| 20260506124847 | 20 | 202 | 3.2 | 3.2 | 0.00 | 0.00 | 0.05 | 57 | 992.4 |
| 20260506124550 | 19 | 135 | 0.0 | 0.0 | 0.00 | 0.00 | 0.05 | 56 | 992.6 |
| 20260506124247 | 19 | 337 | 6.4 | 6.4 | 0.00 | 0.00 | 0.05 | 56 | 992.6 |
| 20260506123948 | 19 | 202 | 6.4 | 6.4 | 0.00 | 0.00 | 0.05 | 54 | 992.4 |
| 20260506123647 | 19 | 315 | 0.0 | 0.0 | 0.00 | 0.00 | 0.05 | 54 | 992.6 |
| 20260506123347 | 19 | 225 | 8.0 | 8.0 | 0.00 | 0.00 | 0.05 | 54 | 992.4 |
| 20260506123050 | 20 | 247 | 0.0 | 0.0 | 0.00 | 0.00 | 0.05 | 54 | 992.4 |
| 20260506122747 | 21 | 225 | 1.6 | 1.6 | 0.00 | 0.00 | 0.05 | 58 | 992.6 |
| 20260506122447 | 21 | 225 | 8.0 | 8.0 | 0.00 | 0.00 | 0.05 | 59 | 992.4 |
| 20260506122148 | 20 | 180 | 6.4 | 6.4 | 0.00 | 0.00 | 0.05 | 59 | 992.6 |
| 20260506121850 | 19 | 202 | 6.4 | 6.4 | 0.00 | 0.00 | 0.05 | 58 | 992.6 |
| 20260506121548 | 20 | 180 | 6.4 | 6.4 | 0.00 | 0.00 | 0.05 | 60 | 992.9 |
| 20260506121247 | 19 | 157 | 6.4 | 6.4 | 0.00 | 0.00 | 0.05 | 59 | 992.6 |
| 20260506120947 | 19 | 337 | 1.6 | 1.6 | 0.00 | 0.00 | 0.05 | 59 | 992.6 |
| 20260506120647 | 18 | 225 | 8.0 | 8.0 | 0.00 | 0.00 | 0.05 | 58 | 992.9 |
| 20260506120350 | 17 | 180 | 9.7 | 9.7 | 0.00 | 0.00 | 0.05 | 59 | 992.9 |
| 20260506120048 | 17 | 202 | 6.4 | 6.4 | 0.00 | 0.00 | 0.05 | 58 | 992.9 |
| 20260506115748 | 18 | 225 | 12.9 | 12.9 | 0.00 | 0.00 | 0.05 | 59 | 992.9 |
| 20260506115447 | 18 | 225 | 4.8 | 4.8 | 0.00 | 0.00 | 0.05 | 59 | 992.6 |
| 20260506115147 | 17 | 337 | 9.7 | 9.7 | 0.00 | 0.00 | 0.05 | 57 | 992.6 |
| 20260506114847 | 18 | 202 | 9.7 | 9.7 | 0.00 | 0.00 | 0.05 | 56 | 992.6 |
| 20260506114550 | 18 | 157 | 6.4 | 6.4 | 0.00 | 0.00 | 0.05 | 57 | 992.6 |
| 20260506114247 | 18 | 180 | 6.4 | 6.4 | 0.00 | 0.00 | 0.05 | 57 | 992.6 |
| 20260506113947 | 20 | 135 | 9.7 | 9.7 | 0.00 | 0.00 | 0.05 | 62 | 992.6 |
| 20260506113648 | 18 | 180 | 6.4 | 6.4 | 0.00 | 0.00 | 0.05 | 57 | 992.6 |
| 20260506113347 | 18 | 202 | 12.9 | 12.9 | 0.00 | 0.00 | 0.05 | 57 | 992.6 |
| 20260506113048 | 18 | 225 | 8.0 | 8.0 | 0.00 | 0.00 | 0.05 | 59 | 992.9 |
| 20260506112750 | 18 | 180 | 12.9 | 12.9 | 0.00 | 0.00 | 0.05 | 58 | 992.6 |
| 20260506112447 | 19 | 135 | 6.4 | 6.4 | 0.00 | 0.00 | 0.05 | 62 | 992.6 |
| 20260506112147 | 18 | 225 | 6.4 | 6.4 | 0.00 | 0.00 | 0.05 | 60 | 992.6 |
| 20260506111848 | 18 | 225 | 4.8 | 6.4 | 0.00 | 0.00 | 0.05 | 58 | 992.6 |
| 20260506111548 | 18 | 292 | 3.2 | 3.2 | 0.00 | 0.00 | 0.05 | 58 | 992.9 |
| 20260506111248 | 19 | 180 | 14.5 | 14.5 | 0.00 | 0.00 | 0.05 | 62 | 992.6 |
| 20260506110947 | 19 | 202 | 3.2 | 3.2 | 0.00 | 0.00 | 0.05 | 63 | 992.9 |
| 20260506110647 | 18 | 225 | 6.4 | 6.4 | 0.00 | 0.00 | 0.05 | 60 | 992.9 |
| 20260506110348 | 18 | 337 | 8.0 | 8.0 | 0.00 | 0.00 | 0.05 | 61 | 992.9 |
| 20260506110047 | 18 | 180 | 3.2 | 3.2 | 0.00 | 0.00 | 0.05 | 62 | 992.9 |
| 20260506105747 | 18 | 225 | 8.0 | 8.0 | 0.00 | 0.00 | 0.05 | 61 | 992.9 |
| 20260506105147 | 18 | 337 | 4.8 | 4.8 | 0.00 | 0.00 | 0.05 | 63 | 992.9 |
| 20260506104847 | 18 | 225 | 4.8 | 4.8 | 0.00 | 0.00 | 0.05 | 64 | 992.6 |
| 20260506104547 | 18 | 247 | 9.7 | 9.7 | 0.00 | 0.00 | 0.05 | 64 | 992.9 |
| 20260506104247 | 18 | 225 | 14.5 | 14.5 | 0.00 | 0.00 | 0.05 | 64 | 992.9 |
| 20260506103950 | 17 | 337 | 8.0 | 8.0 | 0.00 | 0.00 | 0.05 | 64 | 992.9 |
| 20260506103648 | 17 | 247 | 8.0 | 8.0 | 0.00 | 0.00 | 0.05 | 66 | 992.9 |
| 20260506103348 | 17 | 225 | 8.0 | 8.0 | 0.00 | 0.00 | 0.05 | 64 | 992.9 |
| 20260506103046 | 17 | 202 | 11.3 | 11.3 | 0.00 | 0.00 | 0.05 | 63 | 992.9 |
| 20260506102748 | 17 | 337 | 9.7 | 9.7 | 0.00 | 0.00 | 0.05 | 65 | 992.9 |
| 20260506102447 | 17 | 180 | 11.3 | 11.3 | 0.00 | 0.00 | 0.05 | 66 | 992.9 |
| 20260506102148 | 17 | 225 | 6.4 | 6.4 | 0.00 | 0.00 | 0.05 | 66 | 992.9 |
| 20260506101847 | 17 | 225 | 9.7 | 9.7 | 0.00 | 0.00 | 0.05 | 69 | 992.9 |
| 20260506101548 | 17 | 180 | 11.3 | 11.3 | 0.00 | 0.00 | 0.05 | 67 | 992.9 |
| 20260506101247 | 16 | 225 | 12.9 | 12.9 | 0.00 | 0.00 | 0.05 | 68 | 992.9 |
| 20260506100948 | 17 | 180 | 4.8 | 4.8 | 0.00 | 0.00 | 0.05 | 69 | 992.9 |
| 20260506100647 | 17 | 225 | 8.0 | 8.0 | 0.00 | 0.00 | 0.05 | 69 | 992.9 |
| 20260506100350 | 17 | 337 | 9.7 | 9.7 | 0.00 | 0.00 | 0.05 | 68 | 992.9 |
| 20260506100047 | 16 | 180 | 14.5 | 14.5 | 0.00 | 0.00 | 0.05 | 69 | 992.9 |
| 20260506095747 | 16 | 337 | 6.4 | 6.4 | 0.00 | 0.00 | 0.05 | 70 | 992.9 |
| 20260506095447 | 16 | 247 | 3.2 | 3.2 | 0.00 | 0.00 | 0.05 | 70 | 992.9 |
| 20260506095147 | 16 | 270 | 6.4 | 6.4 | 0.00 | 0.00 | 0.05 | 69 | 992.9 |
| 20260506094848 | 16 | 337 | 3.2 | 3.2 | 0.00 | 0.00 | 0.05 | 69 | 992.9 |
| 20260506094247 | 16 | 337 | 6.4 | 6.4 | 0.00 | 0.00 | 0.05 | 70 | 992.9 |
| 20260506093947 | 16 | 202 | 4.8 | 4.8 | 0.00 | 0.00 | 0.05 | 72 | 992.9 |
| 20260506093647 | 16 | 180 | 4.8 | 4.8 | 0.00 | 0.00 | 0.05 | 71 | 992.9 |
| 20260506093347 | 16 | 225 | 3.2 | 3.2 | 0.00 | 0.00 | 0.05 | 71 | 992.9 |
| 20260506093047 | 15 | 202 | 4.8 | 4.8 | 0.00 | 0.00 | 0.05 | 70 | 992.9 |
| 20260506092750 | 16 | 225 | 3.2 | 3.2 | 0.00 | 0.00 | 0.05 | 72 | 992.9 |
| 20260506092447 | 16 | 270 | 4.8 | 4.8 | 0.00 | 0.00 | 0.05 | 71 | 992.9 |
| 20260506092148 | 16 | 270 | 1.6 | 1.6 | 0.00 | 0.00 | 0.05 | 72 | 992.9 |